Time;durP1;ratioP1;P1;durP2;ratioP2;P2;SDS_P1;SDS_P2;PMS_P1;PMS_P2;Temp;Humidity;BMP_temperature;BMP_pressure;BME280_temperature;BME280_humidity;BME280_pressure;Samples;Min_cycle;Max_cycle;Signal;HPM_P1;HPM_P2
2022/05/09 00:02:59;;;;;;;9.30;8.20;;;;;;;;;;5031173;28;20172;-76
2022/05/09 00:06:03;;;;;;;8.47;7.53;;;;;;;;;;5054985;28;20180;-76
2022/05/09 00:09:09;;;;;;;9.97;7.43;;;;;;;;;;5031238;28;20180;-77
2022/05/09 00:12:13;;;;;;;8.83;7.93;;;;;;;;;;5042164;28;20219;-77
2022/05/09 00:15:19;;;;;;;10.70;7.73;;;;;;;;;;5054561;28;20180;-77
2022/05/09 00:18:23;;;;;;;7.87;7.07;;;;;;;;;;5042420;28;20655;-77
2022/05/09 00:21:27;;;;;;;10.57;8.37;;;;;;;;;;5030845;28;20208;-77
2022/05/09 00:24:32;;;;;;;10.57;8.73;;;;;;;;;;5031068;28;20181;-77
2022/05/09 00:27:36;;;;;;;11.07;8.70;;;;;;;;;;5042282;28;20639;-77
2022/05/09 00:30:40;;;;;;;9.33;8.43;;;;;;;;;;5042159;28;20219;-76
2022/05/09 00:33:44;;;;;;;10.13;8.63;;;;;;;;;;5053333;28;20168;-77
2022/05/09 00:36:49;;;;;;;10.67;9.17;;;;;;;;;;5019406;28;20524;-76
2022/05/09 00:39:53;;;;;;;10.30;8.73;;;;;;;;;;5054350;28;20176;-77
2022/05/09 00:42:57;;;;;;;10.80;9.73;;;;;;;;;;5030394;28;20631;-76
2022/05/09 00:46:02;;;;;;;10.57;9.47;;;;;;;;;;5041809;28;20175;-77
2022/05/09 00:49:10;;;;;;;9.97;8.77;;;;;;;;;;5055019;28;20204;-77
2022/05/09 00:52:17;;;;;;;10.80;9.40;;;;;;;;;;5054031;28;20215;-77
2022/05/09 00:55:36;;;;;;;12.40;9.20;;;;;;;;;;5030226;28;20188;-77
2022/05/09 00:58:46;;;;;;;9.57;8.53;;;;;;;;;;5041650;28;20185;-77
2022/05/09 01:01:51;;;;;;;11.13;9.03;;;;;;;;;;5041869;28;20666;-77
2022/05/09 01:04:58;;;;;;;10.17;9.10;;;;;;;;;;5053859;28;20627;-77
2022/05/09 01:08:02;;;;;;;12.27;9.17;;;;;;;;;;5053843;28;20181;-77
2022/05/09 01:11:09;;;;;;;11.37;9.87;;;;;;;;;;5053428;28;20215;-77
2022/05/09 01:14:29;;;;;;;11.43;8.67;;;;;;;;;;5041280;28;20168;-77
2022/05/09 01:17:35;;;;;;;11.00;9.47;;;;;;;;;;5030293;28;20188;-77
2022/05/09 01:20:39;;;;;;;9.73;8.73;;;;;;;;;;5053199;28;20216;-77
2022/05/09 01:23:43;;;;;;;11.03;9.93;;;;;;;;;;5053249;28;20646;-77
2022/05/09 01:26:50;;;;;;;10.00;8.40;;;;;;;;;;5030080;28;20184;-77
2022/05/09 01:30:00;;;;;;;10.47;9.37;;;;;;;;;;5041066;28;20180;-76
2022/05/09 01:33:14;;;;;;;13.00;10.00;;;;;;;;;;5041108;28;20548;-77
2022/05/09 01:36:25;;;;;;;9.50;8.60;;;;;;;;;;5041110;28;20197;-77
2022/05/09 01:39:31;;;;;;;9.70;8.70;;;;;;;;;;5040828;28;20528;-77
2022/05/09 01:42:35;;;;;;;10.57;9.50;;;;;;;;;;5053244;28;20216;-77
2022/05/09 01:45:39;;;;;;;14.23;9.20;;;;;;;;;;5040872;28;20176;-77
2022/05/09 01:52:08;;;;;;;8.80;7.90;;;;;;;;;;5040538;28;20690;-77
2022/05/09 01:55:13;;;;;;;8.70;7.90;;;;;;;;;;5053230;28;20180;-76
2022/05/09 01:58:17;;;;;;;8.87;7.97;;;;;;;;;;5040956;28;20631;-76
2022/05/09 02:01:34;;;;;;;9.27;8.13;;;;;;;;;;5030122;28;20212;-77
2022/05/09 02:04:40;;;;;;;10.70;9.03;;;;;;;;;;5029225;28;20172;-76
2022/05/09 02:07:45;;;;;;;9.27;7.90;;;;;;;;;;5017940;28;20192;-76
2022/05/09 02:10:50;;;;;;;10.60;8.30;;;;;;;;;;5040664;28;20215;-76
2022/05/09 02:13:53;;;;;;;12.53;8.77;;;;;;;;;;5052864;28;20208;-76
2022/05/09 02:16:58;;;;;;;10.20;8.13;;;;;;;;;;5053287;28;20176;-76
2022/05/09 02:20:03;;;;;;;9.50;8.50;;;;;;;;;;5040992;28;20631;-76
2022/05/09 02:23:08;;;;;;;11.73;8.93;;;;;;;;;;5052789;28;20172;-77
2022/05/09 02:26:12;;;;;;;10.03;8.87;;;;;;;;;;5029383;28;20185;-77
2022/05/09 02:29:16;;;;;;;11.20;8.93;;;;;;;;;;5052610;28;20176;-77
2022/05/09 02:32:20;;;;;;;11.23;9.17;;;;;;;;;;5040185;28;20572;-77
2022/05/09 02:35:24;;;;;;;11.97;8.87;;;;;;;;;;5052804;28;20188;-76
2022/05/09 02:38:29;;;;;;;11.97;9.27;;;;;;;;;;5052634;28;20180;-76
2022/05/09 02:41:34;;;;;;;9.80;8.80;;;;;;;;;;5052523;28;20212;-76
2022/05/09 02:44:38;;;;;;;9.57;8.53;;;;;;;;;;5052531;28;20176;-76
2022/05/09 02:47:42;;;;;;;9.57;8.53;;;;;;;;;;5017826;28;20656;-77
2022/05/09 02:50:46;;;;;;;10.13;8.77;;;;;;;;;;5052370;28;20228;-77
2022/05/09 02:53:50;;;;;;;9.50;8.50;;;;;;;;;;5052414;28;20200;-76
2022/05/09 02:56:54;;;;;;;9.37;8.47;;;;;;;;;;5054065;28;20200;-76
2022/05/09 02:59:59;;;;;;;9.93;8.87;;;;;;;;;;5043715;28;20659;-77
2022/05/09 03:06:25;;;;;;;9.93;8.17;;;;;;;;;;5055861;28;20184;-77
2022/05/09 03:09:30;;;;;;;10.00;8.93;;;;;;;;;;5021070;28;20180;-77
2022/05/09 03:12:35;;;;;;;9.20;8.30;;;;;;;;;;5043565;28;20224;-77
2022/05/09 03:15:42;;;;;;;9.57;8.57;;;;;;;;;;5032646;28;20176;-77
2022/05/09 03:18:47;;;;;;;9.37;8.43;;;;;;;;;;5042410;28;20199;-77
2022/05/09 03:21:52;;;;;;;10.07;9.07;;;;;;;;;;5031817;28;20216;-77
2022/05/09 03:24:56;;;;;;;10.13;8.43;;;;;;;;;;5043456;28;20199;-77
2022/05/09 03:28:00;;;;;;;11.23;8.83;;;;;;;;;;5032235;28;20180;-77
2022/05/09 03:31:05;;;;;;;9.90;8.90;;;;;;;;;;5035389;28;20220;-77
2022/05/09 03:34:08;;;;;;;9.50;8.50;;;;;;;;;;5013930;28;20205;-77
2022/05/09 03:37:13;;;;;;;10.20;8.67;;;;;;;;;;5055552;28;20631;-77
2022/05/09 03:40:18;;;;;;;10.13;9.13;;;;;;;;;;5054933;28;20192;-77
2022/05/09 03:43:23;;;;;;;9.10;8.20;;;;;;;;;;5011776;28;20173;-77
2022/05/09 03:46:28;;;;;;;9.03;8.23;;;;;;;;;;5041999;28;20184;-77
2022/05/09 03:49:32;;;;;;;9.23;8.00;;;;;;;;;;5042834;28;20204;-77
2022/05/09 03:52:35;;;;;;;9.10;8.20;;;;;;;;;;5053792;23;20223;-74
2022/05/09 03:55:39;;;;;;;9.93;8.93;;;;;;;;;;5043131;28;20192;-74
2022/05/09 03:58:43;;;;;;;9.07;8.23;;;;;;;;;;5053835;28;20179;-74
2022/05/09 04:01:47;;;;;;;9.17;8.27;;;;;;;;;;5054940;28;20555;-75
2022/05/09 04:04:52;;;;;;;10.63;8.53;;;;;;;;;;5055171;28;20176;-75
2022/05/09 04:07:57;;;;;;;8.93;8.03;;;;;;;;;;5053801;28;20195;-75
2022/05/09 04:11:01;;;;;;;8.97;8.07;;;;;;;;;;5035185;28;20221;-74
2022/05/09 04:14:05;;;;;;;12.97;9.10;;;;;;;;;;5040834;28;20678;-74
2022/05/09 04:17:10;;;;;;;8.73;7.87;;;;;;;;;;5054798;28;20204;-74
2022/05/09 04:20:14;;;;;;;9.97;8.53;;;;;;;;;;5055023;28;20188;-74
2022/05/09 04:23:19;;;;;;;9.13;8.20;;;;;;;;;;5053050;28;20188;-74
2022/05/09 04:26:24;;;;;;;9.47;8.63;;;;;;;;;;5056158;28;20184;-75
2022/05/09 04:29:28;;;;;;;10.80;8.70;;;;;;;;;;5054739;28;20188;-74
2022/05/09 04:32:32;;;;;;;10.03;8.13;;;;;;;;;;5034767;28;20584;-75
2022/05/09 04:35:39;;;;;;;8.90;8.03;;;;;;;;;;5055505;28;20196;-74
2022/05/09 04:38:45;;;;;;;9.87;8.87;;;;;;;;;;5054749;28;20192;-75
2022/05/09 04:41:50;;;;;;;11.13;8.67;;;;;;;;;;5054738;28;20212;-74
2022/05/09 04:44:57;;;;;;;15.53;9.03;;;;;;;;;;5053417;28;20188;-75
2022/05/09 04:48:02;;;;;;;9.43;8.33;;;;;;;;;;5054472;28;20180;-75
2022/05/09 04:51:06;;;;;;;9.77;8.37;;;;;;;;;;5054255;28;20215;-76
2022/05/09 04:54:10;;;;;;;9.70;7.97;;;;;;;;;;5055267;28;20212;-75
2022/05/09 04:57:15;;;;;;;9.07;7.20;;;;;;;;;;5055063;28;20189;-75
2022/05/09 05:00:22;;;;;;;8.37;7.47;;;;;;;;;;5055281;28;20176;-75
2022/05/09 05:03:26;;;;;;;8.33;7.53;;;;;;;;;;5049180;28;20180;-75
2022/05/09 05:06:30;;;;;;;8.97;8.10;;;;;;;;;;5055173;28;20180;-75
2022/05/09 05:09:35;;;;;;;8.30;7.27;;;;;;;;;;5054108;28;20188;-75
2022/05/09 05:12:39;;;;;;;7.70;7.00;;;;;;;;;;5054227;28;20216;-75
2022/05/09 05:15:43;;;;;;;7.93;7.13;;;;;;;;;;5053658;28;20196;-74
2022/05/09 05:18:47;;;;;;;8.23;7.40;;;;;;;;;;5053619;28;20188;-76
2022/05/09 05:21:51;;;;;;;7.23;6.53;;;;;;;;;;5042281;28;20219;-75
2022/05/09 05:24:56;;;;;;;8.97;7.33;;;;;;;;;;5052862;28;20188;-75
2022/05/09 05:28:00;;;;;;;8.60;7.57;;;;;;;;;;5053531;28;20192;-75
2022/05/09 05:31:13;;;;;;;11.03;7.50;;;;;;;;;;5054696;28;20220;-75
2022/05/09 05:34:18;;;;;;;9.60;7.90;;;;;;;;;;5053465;28;20667;-75
2022/05/09 05:37:22;;;;;;;9.40;8.50;;;;;;;;;;5054749;28;20536;-75
2022/05/09 05:40:27;;;;;;;10.73;7.70;;;;;;;;;;5043256;28;20630;-75
2022/05/09 05:43:31;;;;;;;9.90;8.27;;;;;;;;;;5053235;28;20638;-74
2022/05/09 05:46:35;;;;;;;9.07;7.87;;;;;;;;;;5053534;28;20192;-75
2022/05/09 05:49:40;;;;;;;11.77;8.57;;;;;;;;;;5054429;28;20196;-75
2022/05/09 05:52:44;;;;;;;8.57;7.47;;;;;;;;;;5052915;28;20216;-75
2022/05/09 05:55:48;;;;;;;11.30;8.77;;;;;;;;;;5054028;28;20188;-75
2022/05/09 05:58:52;;;;;;;10.97;8.97;;;;;;;;;;5054257;28;20196;-75
2022/05/09 06:01:57;;;;;;;11.87;8.67;;;;;;;;;;5053844;28;20216;-74
2022/05/09 06:05:10;;;;;;;12.33;8.70;;;;;;;;;;5028340;28;20635;-74
2022/05/09 06:08:16;;;;;;;10.97;8.23;;;;;;;;;;5047985;28;20196;-75
2022/05/09 06:11:20;;;;;;;10.60;8.30;;;;;;;;;;5005042;28;20221;-74
2022/05/09 06:14:24;;;;;;;10.07;8.47;;;;;;;;;;4987210;28;20205;-75
2022/05/09 06:17:28;;;;;;;7.67;6.87;;;;;;;;;;5005652;28;20194;-75
2022/05/09 06:20:35;;;;;;;8.93;7.57;;;;;;;;;;4995443;28;20178;-75
2022/05/09 06:23:39;;;;;;;9.67;6.83;;;;;;;;;;4994980;28;20182;-74
2022/05/09 06:26:45;;;;;;;8.40;6.57;;;;;;;;;;4994452;28;20190;-75
2022/05/09 06:29:49;;;;;;;7.73;6.77;;;;;;;;;;4993672;28;20198;-74
2022/05/09 06:32:55;;;;;;;8.40;6.60;;;;;;;;;;4998101;28;20190;-74
2022/05/09 06:36:01;;;;;;;7.43;6.07;;;;;;;;;;4988390;28;20645;-74
2022/05/09 06:39:07;;;;;;;6.93;5.50;;;;;;;;;;4977060;28;20661;-75
2022/05/09 06:42:12;;;;;;;7.90;6.13;;;;;;;;;;4986054;28;20218;-75
2022/05/09 06:45:17;;;;;;;9.63;5.80;;;;;;;;;;4997251;28;20182;-74
2022/05/09 06:48:21;;;;;;;6.10;5.50;;;;;;;;;;4996840;28;20190;-75
2022/05/09 06:51:25;;;;;;;7.93;6.10;;;;;;;;;;4996620;28;20708;-75
2022/05/09 06:54:29;;;;;;;5.80;5.30;;;;;;;;;;4995958;28;20210;-74
2022/05/09 06:57:37;;;;;;;7.37;6.30;;;;;;;;;;4997740;28;20186;-75
2022/05/09 07:00:41;;;;;;;6.27;5.67;;;;;;;;;;4997435;28;20221;-75
2022/05/09 07:03:46;;;;;;;6.60;5.23;;;;;;;;;;4984180;28;20198;-74
2022/05/09 07:06:51;;;;;;;9.13;6.30;;;;;;;;;;4997962;28;20506;-75
2022/05/09 07:09:55;;;;;;;6.00;5.33;;;;;;;;;;4996804;28;20194;-75
2022/05/09 07:12:59;;;;;;;6.63;5.10;;;;;;;;;;4988273;28;20645;-76
2022/05/09 07:16:04;;;;;;;6.57;5.40;;;;;;;;;;4978906;28;20179;-75
2022/05/09 07:19:10;;;;;;;5.90;5.33;;;;;;;;;;4993874;28;20190;-75
2022/05/09 07:22:14;;;;;;;10.83;5.37;;;;;;;;;;4997282;28;20226;-75
2022/05/09 07:25:20;;;;;;;5.87;4.93;;;;;;;;;;4997346;28;20183;-76
2022/05/09 07:28:28;;;;;;;12.23;5.40;;;;;;;;;;4997391;28;20202;-75
2022/05/09 07:31:33;;;;;;;5.57;5.03;;;;;;;;;;4996530;28;20566;-75
2022/05/09 07:34:37;;;;;;;7.63;6.03;;;;;;;;;;4978058;28;20198;-75
2022/05/09 07:37:41;;;;;;;6.40;5.73;;;;;;;;;;4976783;28;20190;-75
2022/05/09 07:40:47;;;;;;;5.70;5.10;;;;;;;;;;4978138;28;20214;-75
2022/05/09 07:43:51;;;;;;;6.40;5.20;;;;;;;;;;4987244;28;20185;-75
2022/05/09 07:46:57;;;;;;;7.97;5.40;;;;;;;;;;4997171;28;20190;-75
2022/05/09 07:50:01;;;;;;;7.37;5.30;;;;;;;;;;4997032;28;20629;-74
2022/05/09 07:53:13;;;;;;;5.77;5.07;;;;;;;;;;4995588;28;20209;-75
2022/05/09 07:56:17;;;;;;;10.73;5.47;;;;;;;;;;4987175;28;20175;-75
2022/05/09 07:59:21;;;;;;;7.80;5.37;;;;;;;;;;4977532;28;20178;-75
2022/05/09 08:02:26;;;;;;;5.93;4.43;;;;;;;;;;4996772;28;20221;-75
2022/05/09 08:05:31;;;;;;;9.33;5.10;;;;;;;;;;4996025;28;20175;-75
2022/05/09 08:08:37;;;;;;;5.27;4.70;;;;;;;;;;4996924;28;20194;-75
2022/05/09 08:11:41;;;;;;;6.53;5.67;;;;;;;;;;4996774;28;20566;-75
2022/05/09 08:14:46;;;;;;;7.70;5.20;;;;;;;;;;4976462;28;20202;-75
2022/05/09 08:17:52;;;;;;;6.03;5.43;;;;;;;;;;4976782;28;20187;-74
2022/05/09 08:20:57;;;;;;;7.77;5.40;;;;;;;;;;4965166;28;20211;-75
2022/05/09 08:24:03;;;;;;;6.73;5.77;;;;;;;;;;4987166;28;20175;-76
2022/05/09 08:27:07;;;;;;;6.30;5.37;;;;;;;;;;4976688;28;20187;-76
2022/05/09 08:30:12;;;;;;;6.17;5.20;;;;;;;;;;4977280;28;20184;-76
2022/05/09 08:33:22;;;;;;;8.90;5.23;;;;;;;;;;4977009;28;20190;-76
2022/05/09 08:39:49;;;;;;;5.43;4.67;;;;;;;;;;4976174;28;20192;-76
2022/05/09 08:43:11;;;;;;;7.53;5.17;;;;;;;;;;4954224;28;20201;-76
2022/05/09 08:46:53;;;;;;;5.73;5.23;;;;;;;;;;4976232;28;20521;-76
2022/05/09 08:50:36;;;;;;;5.43;4.90;;;;;;;;;;5000022;28;20197;-75
2022/05/09 08:53:44;;;;;;;8.83;5.50;;;;;;;;;;4994410;28;20198;-76
2022/05/09 08:56:53;;;;;;;5.63;5.03;;;;;;;;;;4994329;28;20184;-76
2022/05/09 09:00:03;;;;;;;5.30;4.50;;;;;;;;;;4994226;28;20186;-75
2022/05/09 09:03:25;;;;;;;5.27;4.57;;;;;;;;;;4983490;28;20189;-76
2022/05/09 09:06:53;;;;;;;7.07;5.50;;;;;;;;;;4994840;28;20186;-76
2022/05/09 09:10:08;;;;;;;6.87;5.80;;;;;;;;;;4993950;28;20190;-75
2022/05/09 09:13:44;;;;;;;6.90;5.20;;;;;;;;;;4982737;28;20535;-75
2022/05/09 09:17:09;;;;;;;9.30;5.47;;;;;;;;;;4994001;28;20188;-75
2022/05/09 09:20:17;;;;;;;6.87;5.73;;;;;;;;;;4982915;28;20187;-76
2022/05/09 09:23:27;;;;;;;5.88;5.28;;;;;;;;;;4993954;28;20182;-75
2022/05/09 09:26:34;;;;;;;6.72;5.38;;;;;;;;;;4994871;28;20187;-75
2022/05/09 09:29:53;;;;;;;7.83;5.27;;;;;;;;;;4982767;28;20180;-75
2022/05/09 09:33:01;;;;;;;6.27;5.67;;;;;;;;;;4994949;28;20182;-75
2022/05/09 09:36:10;;;;;;;6.00;5.40;;;;;;;;;;4995781;28;20668;-76
2022/05/09 09:39:17;;;;;;;6.20;5.60;;;;;;;;;;4994069;28;20198;-76
2022/05/09 09:42:21;;;;;;;7.47;5.93;;;;;;;;;;4994632;28;20217;-76
2022/05/09 09:45:32;;;;;;;7.23;6.00;;;;;;;;;;4993466;28;20176;-76
2022/05/09 09:48:36;;;;;;;6.47;5.73;;;;;;;;;;4993995;28;20197;-76
2022/05/09 09:51:48;;;;;;;6.40;5.80;;;;;;;;;;5014121;23;20238;-78
2022/05/09 09:55:08;;;;;;;9.57;5.80;;;;;;;;;;5013333;28;20207;-78
2022/05/09 09:58:26;;;;;;;6.07;5.37;;;;;;;;;;5028667;28;20191;-78
2022/05/09 10:01:32;;;;;;;6.10;5.50;;;;;;;;;;5025298;28;20247;-78
2022/05/09 10:04:37;;;;;;;6.07;4.90;;;;;;;;;;5002268;28;20201;-77
2022/05/09 10:07:45;;;;;;;8.18;4.85;;;;;;;;;;4994130;28;20189;-78
2022/05/09 10:11:03;;;;;;;8.70;6.00;;;;;;;;;;5006152;28;20224;-78
2022/05/09 10:14:09;;;;;;;6.93;5.20;;;;;;;;;;4999128;28;20179;-79
2022/05/09 10:17:18;;;;;;;5.47;4.97;;;;;;;;;;5020396;28;20190;-78
2022/05/09 10:20:24;;;;;;;7.95;5.75;;;;;;;;;;5020846;28;20657;-78
2022/05/09 10:26:58;;;;;;;5.93;5.32;;;;;;;;;;5003631;28;20190;-79
2022/05/09 10:30:05;;;;;;;5.20;4.65;;;;;;;;;;5004838;28;20194;-78
2022/05/09 10:33:37;;;;;;;6.72;5.20;;;;;;;;;;5004290;28;20182;-78
2022/05/09 10:36:50;;;;;;;6.63;5.00;;;;;;;;;;5008856;28;20545;-78
2022/05/09 10:40:15;;;;;;;5.68;5.18;;;;;;;;;;5010860;28;20195;-78
2022/05/09 10:43:29;;;;;;;8.82;4.47;;;;;;;;;;5014787;28;20198;-78
2022/05/09 10:46:50;;;;;;;5.57;4.38;;;;;;;;;;5006717;28;20192;-79
2022/05/09 10:50:24;;;;;;;6.03;4.47;;;;;;;;;;5005076;28;20190;-77
2022/05/09 10:53:31;;;;;;;6.73;5.00;;;;;;;;;;4991509;28;20201;-78
2022/05/09 10:56:44;;;;;;;6.67;4.93;;;;;;;;;;5019672;28;20191;-78
2022/05/09 10:59:50;;;;;;;8.00;5.13;;;;;;;;;;5008894;28;20195;-78
2022/05/09 11:03:03;;;;;;;7.00;5.43;;;;;;;;;;4995328;28;20186;-77
2022/05/09 11:06:20;;;;;;;5.70;5.10;;;;;;;;;;5005355;28;20201;-78
2022/05/09 11:10:02;;;;;;;5.80;5.20;;;;;;;;;;5013718;28;20198;-78
2022/05/09 11:13:22;;;;;;;6.23;5.50;;;;;;;;;;5004622;28;20194;-77
2022/05/09 11:17:07;;;;;;;10.23;5.67;;;;;;;;;;4992841;28;20219;-77
2022/05/09 11:20:35;;;;;;;6.77;4.93;;;;;;;;;;4996495;28;20202;-78
2022/05/09 11:23:50;;;;;;;6.57;4.73;;;;;;;;;;5014805;28;20195;-78
2022/05/09 11:27:01;;;;;;;6.03;4.60;;;;;;;;;;5002313;28;20182;-78
2022/05/09 11:30:14;;;;;;;5.63;5.03;;;;;;;;;;4998329;28;20194;-78
2022/05/09 11:33:32;;;;;;;5.47;4.97;;;;;;;;;;4999890;28;20174;-78
2022/05/09 11:36:50;;;;;;;10.30;4.50;;;;;;;;;;5011268;28;20219;-78
2022/05/09 11:40:06;;;;;;;5.67;4.07;;;;;;;;;;5006142;28;20195;-78
2022/05/09 11:43:32;;;;;;;4.90;4.33;;;;;;;;;;5002813;28;20632;-78
2022/05/09 11:46:42;;;;;;;6.07;4.07;;;;;;;;;;5005041;28;20184;-76
2022/05/09 11:50:31;;;;;;;6.28;4.50;;;;;;;;;;4988155;28;20183;-77
2022/05/09 11:53:41;;;;;;;7.28;4.25;;;;;;;;;;4990071;28;20666;-78
2022/05/09 11:56:52;;;;;;;5.88;4.03;;;;;;;;;;5017414;28;20217;-77
2022/05/09 12:00:05;;;;;;;6.57;3.60;;;;;;;;;;5000397;28;20201;-77
2022/05/09 12:03:38;;;;;;;5.72;3.83;;;;;;;;;;5005704;28;20184;-78
2022/05/09 12:06:43;;;;;;;6.47;3.50;;;;;;;;;;5019852;28;20185;-78
2022/05/09 12:10:00;;;;;;;5.97;3.92;;;;;;;;;;5004136;28;20189;-78
2022/05/09 12:13:07;;;;;;;4.97;3.60;;;;;;;;;;4998512;28;20184;-77
2022/05/09 12:16:34;;;;;;;5.22;3.90;;;;;;;;;;5013543;28;20218;-77
2022/05/09 12:19:38;;;;;;;4.28;3.50;;;;;;;;;;4994778;28;20205;-76
2022/05/09 12:22:49;;;;;;;4.30;3.90;;;;;;;;;;5011428;28;20190;-77
2022/05/09 12:26:03;;;;;;;4.03;3.72;;;;;;;;;;5008180;28;20185;-76
2022/05/09 12:29:11;;;;;;;6.85;3.80;;;;;;;;;;4999002;28;20188;-77
2022/05/09 12:32:17;;;;;;;4.32;3.88;;;;;;;;;;4994962;28;20233;-77
2022/05/09 12:35:21;;;;;;;4.15;3.80;;;;;;;;;;4997846;28;20691;-76
2022/05/09 12:38:33;;;;;;;6.28;4.05;;;;;;;;;;5010076;28;20191;-77
2022/05/09 12:41:48;;;;;;;7.68;3.75;;;;;;;;;;4995839;28;20225;-76
2022/05/09 12:44:56;;;;;;;5.80;3.63;;;;;;;;;;5006729;28;20193;-77
2022/05/09 12:48:01;;;;;;;5.32;3.67;;;;;;;;;;5007507;28;20183;-77
2022/05/09 12:51:09;;;;;;;3.50;3.17;;;;;;;;;;5013885;28;20219;-77
2022/05/09 12:54:17;;;;;;;4.72;3.80;;;;;;;;;;5014738;28;20174;-77
2022/05/09 12:57:32;;;;;;;6.60;3.50;;;;;;;;;;5005532;28;20187;-77
2022/05/09 13:00:37;;;;;;;4.22;3.50;;;;;;;;;;4993819;28;20223;-76
2022/05/09 13:04:05;;;;;;;10.18;3.40;;;;;;;;;;4994843;28;20185;-77
2022/05/09 13:07:10;;;;;;;3.72;3.42;;;;;;;;;;5005145;28;20632;-77
2022/05/09 13:10:16;;;;;;;3.42;3.13;;;;;;;;;;4994904;28;20182;-77
2022/05/09 13:13:36;;;;;;;3.40;3.10;;;;;;;;;;4994909;28;20189;-77
2022/05/09 13:16:48;;;;;;;5.95;3.78;;;;;;;;;;5012250;28;20214;-77
2022/05/09 13:19:55;;;;;;;11.80;4.28;;;;;;;;;;5010389;28;20202;-77
2022/05/09 13:23:08;;;;;;;7.00;3.72;;;;;;;;;;4994155;28;20200;-76
2022/05/09 13:26:19;;;;;;;3.85;2.92;;;;;;;;;;4994831;28;20198;-76
2022/05/09 13:29:38;;;;;;;4.07;3.30;;;;;;;;;;5013877;28;20185;-77
2022/05/09 13:32:42;;;;;;;5.28;3.38;;;;;;;;;;5009538;28;20198;-76
2022/05/09 13:35:49;;;;;;;7.82;3.08;;;;;;;;;;5003382;28;20216;-77
2022/05/09 13:38:53;;;;;;;3.70;2.70;;;;;;;;;;4982032;28;20197;-76
2022/05/09 13:42:03;;;;;;;4.63;3.47;;;;;;;;;;4994220;28;20222;-76
2022/05/09 13:45:10;;;;;;;7.15;3.70;;;;;;;;;;5005938;28;20187;-77
2022/05/09 13:48:23;;;;;;;5.07;3.58;;;;;;;;;;5004346;28;20194;-76
2022/05/09 13:51:34;;;;;;;4.50;3.45;;;;;;;;;;4998781;28;20229;-76
2022/05/09 13:54:45;;;;;;;9.38;3.40;;;;;;;;;;4984904;28;20192;-76
2022/05/09 13:57:50;;;;;;;4.43;3.72;;;;;;;;;;5013633;28;20185;-77
2022/05/09 14:00:57;;;;;;;5.80;3.85;;;;;;;;;;5013302;28;20227;-75
2022/05/09 14:04:04;;;;;;;4.93;3.70;;;;;;;;;;5008246;28;20200;-77
2022/05/09 14:10:49;;;;;;;4.38;3.22;;;;;;;;;;5023975;28;20189;-76
2022/05/09 14:13:53;;;;;;;5.47;2.90;;;;;;;;;;5013348;28;20184;-77
2022/05/09 14:17:00;;;;;;;3.92;3.20;;;;;;;;;;5006598;28;20207;-77
2022/05/09 14:20:08;;;;;;;4.70;3.30;;;;;;;;;;5012134;28;20189;-77
2022/05/09 14:23:19;;;;;;;5.35;3.58;;;;;;;;;;5013220;28;20197;-77
2022/05/09 14:29:56;;;;;;;4.25;3.85;;;;;;;;;;5013290;28;20183;-77
2022/05/09 14:33:00;;;;;;;7.82;4.00;;;;;;;;;;5011924;28;20191;-77
2022/05/09 14:36:35;;;;;;;21.10;4.28;;;;;;;;;;5000232;28;20547;-77
2022/05/09 14:39:41;;;;;;;4.28;3.78;;;;;;;;;;4997393;28;20187;-76
2022/05/09 14:42:56;;;;;;;6.05;3.58;;;;;;;;;;5007580;28;20556;-77
2022/05/09 14:46:03;;;;;;;6.73;3.63;;;;;;;;;;5002667;28;20195;-77
2022/05/09 14:49:09;;;;;;;7.50;3.53;;;;;;;;;;4993704;28;20184;-77
2022/05/09 14:52:31;;;;;;;4.60;3.67;;;;;;;;;;4998808;28;20227;-77
2022/05/09 14:59:24;;;;;;;5.60;4.00;;;;;;;;;;4996850;28;20205;-76
2022/05/09 15:02:31;;;;;;;5.13;3.73;;;;;;;;;;4995986;28;20708;-76
2022/05/09 15:05:36;;;;;;;5.00;4.50;;;;;;;;;;4996970;28;20516;-76
2022/05/09 15:08:41;;;;;;;5.57;4.10;;;;;;;;;;4996110;28;20625;-76
2022/05/09 15:11:46;;;;;;;5.60;3.63;;;;;;;;;;4997103;28;20224;-76
2022/05/09 15:14:52;;;;;;;4.83;3.80;;;;;;;;;;4995783;28;20178;-76
2022/05/09 15:17:56;;;;;;;7.73;4.20;;;;;;;;;;5007268;28;20189;-76
2022/05/09 15:21:02;;;;;;;4.27;3.73;;;;;;;;;;4995772;28;20218;-76
2022/05/09 15:24:06;;;;;;;8.03;4.03;;;;;;;;;;4996564;28;20197;-76
2022/05/09 15:27:14;;;;;;;5.93;4.20;;;;;;;;;;4995383;28;20652;-76
2022/05/09 15:30:19;;;;;;;6.23;4.33;;;;;;;;;;4995522;28;20175;-76
2022/05/09 15:33:23;;;;;;;7.17;4.00;;;;;;;;;;4995480;28;20186;-76
2022/05/09 15:36:27;;;;;;;4.73;3.97;;;;;;;;;;4995589;28;20683;-76
2022/05/09 15:39:33;;;;;;;6.07;4.20;;;;;;;;;;4996393;28;20189;-76
2022/05/09 15:42:37;;;;;;;8.20;3.97;;;;;;;;;;4996525;28;20218;-76
2022/05/09 15:45:41;;;;;;;6.20;4.10;;;;;;;;;;4996779;28;20188;-76
2022/05/09 15:48:46;;;;;;;4.37;3.97;;;;;;;;;;4995387;28;20514;-76
2022/05/09 15:51:50;;;;;;;4.40;4.00;;;;;;;;;;5011221;23;20222;-75
2022/05/09 15:55:00;;;;;;;5.73;4.13;;;;;;;;;;4994719;28;20558;-75
2022/05/09 15:58:04;;;;;;;10.50;4.70;;;;;;;;;;4995967;28;20171;-74
2022/05/09 16:01:13;;;;;;;4.83;3.90;;;;;;;;;;4995581;28;20218;-75
2022/05/09 16:04:18;;;;;;;5.73;3.97;;;;;;;;;;4994583;28;20202;-75
2022/05/09 16:14:09;;;;;;;6.10;4.30;;;;;;;;;;5006389;28;20183;-75
2022/05/09 16:17:15;;;;;;;5.67;4.17;;;;;;;;;;4995637;28;20206;-74
2022/05/09 16:20:19;;;;;;;6.07;4.10;;;;;;;;;;4995510;28;20637;-75
2022/05/09 16:23:24;;;;;;;5.50;4.23;;;;;;;;;;4995235;28;20633;-74
2022/05/09 16:26:31;;;;;;;5.20;4.50;;;;;;;;;;5005988;28;20174;-74
2022/05/09 16:29:35;;;;;;;7.13;4.20;;;;;;;;;;5005683;28;20178;-76
2022/05/09 16:32:39;;;;;;;4.40;3.83;;;;;;;;;;4995017;28;20218;-77
2022/05/09 16:35:44;;;;;;;7.17;4.53;;;;;;;;;;4995281;28;20182;-76
2022/05/09 16:38:48;;;;;;;4.67;3.93;;;;;;;;;;4994230;28;20174;-76
2022/05/09 16:41:52;;;;;;;4.87;4.07;;;;;;;;;;4995361;28;20226;-76
2022/05/09 16:45:11;;;;;;;4.97;4.33;;;;;;;;;;4994087;28;20637;-76
2022/05/09 16:48:15;;;;;;;7.43;4.33;;;;;;;;;;4995342;28;20179;-76
2022/05/09 16:51:20;;;;;;;5.17;4.27;;;;;;;;;;5005270;28;20218;-76
2022/05/09 16:54:24;;;;;;;5.33;4.63;;;;;;;;;;4994114;28;20174;-76
2022/05/09 16:57:29;;;;;;;6.93;4.40;;;;;;;;;;5005283;28;20210;-76
2022/05/09 17:00:34;;;;;;;4.83;4.33;;;;;;;;;;4994503;28;20191;-76
2022/05/09 17:03:38;;;;;;;6.80;4.23;;;;;;;;;;4992626;28;20185;-76
2022/05/09 17:06:42;;;;;;;7.20;4.60;;;;;;;;;;4992864;28;20185;-75
2022/05/09 17:09:47;;;;;;;7.73;5.03;;;;;;;;;;4980944;28;20191;-75
2022/05/09 17:12:54;;;;;;;7.10;4.40;;;;;;;;;;4974988;28;20187;-75
2022/05/09 17:15:58;;;;;;;7.53;4.40;;;;;;;;;;4974319;28;20191;-75
2022/05/09 17:19:02;;;;;;;6.87;5.30;;;;;;;;;;4974915;28;20179;-77
2022/05/09 17:22:06;;;;;;;8.53;5.63;;;;;;;;;;4980411;28;20225;-77
2022/05/09 17:25:12;;;;;;;7.27;6.07;;;;;;;;;;4993724;28;20194;-77
2022/05/09 17:28:23;;;;;;;8.03;5.57;;;;;;;;;;4982458;28;20198;-77
2022/05/09 17:31:27;;;;;;;5.73;5.20;;;;;;;;;;4982535;28;20225;-77
2022/05/09 17:34:31;;;;;;;6.47;5.20;;;;;;;;;;4993701;28;20629;-75
2022/05/09 17:37:36;;;;;;;7.13;5.07;;;;;;;;;;4993170;28;20214;-76
2022/05/09 17:40:45;;;;;;;5.40;4.60;;;;;;;;;;4994286;28;20221;-76
2022/05/09 17:43:50;;;;;;;7.03;5.00;;;;;;;;;;4994266;28;20194;-76
2022/05/09 17:46:55;;;;;;;6.83;5.20;;;;;;;;;;4994667;28;20194;-75
2022/05/09 17:50:00;;;;;;;8.77;5.00;;;;;;;;;;4993391;28;20206;-76
2022/05/09 17:53:04;;;;;;;9.23;5.20;;;;;;;;;;4993528;28;20209;-76
2022/05/09 17:56:08;;;;;;;7.50;4.90;;;;;;;;;;4992792;28;20194;-76
2022/05/09 17:59:16;;;;;;;6.17;4.83;;;;;;;;;;5004311;28;20193;-75
2022/05/09 18:02:26;;;;;;;10.77;5.37;;;;;;;;;;5003683;28;20222;-76
2022/05/09 18:05:30;;;;;;;6.57;4.40;;;;;;;;;;4992524;28;20194;-76
2022/05/09 18:08:34;;;;;;;7.47;5.17;;;;;;;;;;4992119;28;20186;-76
2022/05/09 18:12:16;;;;;;;7.00;4.80;;;;;;;;;;4992417;28;20226;-76
2022/05/09 18:15:27;;;;;;;5.30;4.73;;;;;;;;;;4937485;28;20584;-76
2022/05/09 18:18:45;;;;;;;5.90;4.63;;;;;;;;;;4977064;28;20214;-76
2022/05/09 18:21:51;;;;;;;7.20;5.27;;;;;;;;;;4998060;28;20589;-76
2022/05/09 18:24:57;;;;;;;6.87;5.17;;;;;;;;;;4987691;28;20202;-75
2022/05/09 18:28:02;;;;;;;6.33;4.73;;;;;;;;;;4996654;28;20186;-75
2022/05/09 18:31:06;;;;;;;6.27;5.43;;;;;;;;;;4977946;28;20215;-75
2022/05/09 18:34:18;;;;;;;6.63;4.70;;;;;;;;;;4994456;28;20202;-75
2022/05/09 18:37:28;;;;;;;13.40;5.57;;;;;;;;;;4991225;28;20530;-75
2022/05/09 18:40:34;;;;;;;5.93;5.30;;;;;;;;;;4997280;28;20190;-75
2022/05/09 18:43:39;;;;;;;6.27;4.80;;;;;;;;;;4997311;28;20186;-76
2022/05/09 18:46:44;;;;;;;6.77;4.93;;;;;;;;;;4996487;28;20518;-75
2022/05/09 18:53:12;;;;;;;6.13;5.00;;;;;;;;;;4996020;28;20210;-75
2022/05/09 18:56:23;;;;;;;7.43;5.20;;;;;;;;;;4995534;28;20661;-74
2022/05/09 18:59:33;;;;;;;7.03;5.40;;;;;;;;;;4982954;28;20175;-74
2022/05/09 19:02:52;;;;;;;6.97;5.60;;;;;;;;;;4995251;28;20191;-75
2022/05/09 19:06:08;;;;;;;6.30;5.30;;;;;;;;;;4966031;28;20195;-74
2022/05/09 19:09:30;;;;;;;8.77;5.93;;;;;;;;;;5001945;28;20190;-75
2022/05/09 19:12:44;;;;;;;9.23;5.90;;;;;;;;;;4996425;28;20178;-75
2022/05/09 19:15:50;;;;;;;7.80;6.33;;;;;;;;;;4996160;28;20174;-75
2022/05/09 19:18:54;;;;;;;7.17;6.30;;;;;;;;;;5006887;28;20206;-75
2022/05/09 19:22:00;;;;;;;6.70;5.90;;;;;;;;;;4995784;28;20225;-75